Time Latitude Longitude Accuracy (66% radius in meters) Altitude (meters) Speed (km/hour) Bearing (degrees) Battery (%) GPS flag
06:50:55 57.203148 60.119222 6 319.95671797864 6.1389231681824 335.85397338867 89 1 delete
06:50:54 57.203089 60.119256 6 319.87540626852 6.3004956245422 344.47366333008 89 1 delete
06:50:52 57.202952 60.119317 3 319.66148566276 4.4011392593384 347.54632568359 89 1 delete
06:50:50 57.202805 60.119364 3 319.35430073206 3.7589032649994 353.14334106445 89 1 delete
06:50:48 57.202664 60.119357 3 318.87833143166 3.2168560028076 1.1054091453552 89 1 delete
06:50:45 57.202591 60.119174 3 318.47907653402 2.9223148822784 102.23941802979 89 1 delete
06:50:42 57.202621 60.119011 3 318.37591191343 2.9520654678345 134.18203735352 89 1 delete
06:50:38 57.202703 60.118887 3 318.24021247318 2.820540189743 161.90106201172 89 1 delete
06:50:34 57.202805 60.118829 3 318.10039771197 2.7035136222839 170.12913513184 89 1 delete
06:50:30 57.202901 60.118785 3 317.94981889161 2.6762907505035 166.24838256836 89 1 delete
06:50:26 57.202990 60.118757 3 317.78830259756 2.6816802024841 171.94361877441 89 1 delete
06:50:23 57.203062 60.118736 3 317.65943610653 2.5835900306702 172.38935852051 89 1 delete
06:50:22 57.203081 60.118736 3 317.61496717108 2.5595328807831 172.49133300781 89 1 delete
06:50:18 57.203180 60.118720 3 317.42914320236 2.4029803276062 170.00123596191 89 1 delete
06:50:14 57.203280 60.118704 3 317.23121380709 2.2395601272583 170.3595123291 89 1 delete
06:50:13 57.203308 60.118702 3 317.17986447324 2.1810941696167 168.22485351562 89 1 delete
06:50:11 57.203371 60.118696 3 317.07493774211 1.9967391490936 171.81356811523 89 1 delete
06:50:07 57.203481 60.118676 3 316.85627892973 1.753888130188 166.45481872559 89 1 delete
06:50:03 57.203567 60.118663 3 316.62753080018 1.5719029903412 171.23080444336 89 1 delete
06:50:02 57.203586 60.118657 3 316.56835199566 1.567489027977 166.95584106445 89 1 delete
06:49:57 57.203682 60.118615 3 316.25888123913 1.3038333654404 164.87211608887 89 1 delete
06:49:52 57.203760 60.118555 3 315.9247882753 1.0983741283417 160.22650146484 89 1 delete
06:49:49 57.203775 60.118535 3 315.71067434562 1.2078305482864 144.43771362305 89 1 delete
06:49:42 57.203831 60.118405 3 315.16980935771 1.3656219244003 125.21956634521 89 1 delete
06:49:32 57.203865 60.118267 3 314.62650141414 0.042183130979538 155.54571533203 89 1 delete
06:49:21 57.203869 60.118263 3 314.44974730894 0.06126568838954 155.54571533203 89 1 delete
06:49:11 57.203865 60.118272 3 314.3614821872 0.038347207009792 155.54571533203 89 1 delete
06:49:00 57.203862 60.118286 3 314.2648704124 0.17383095622063 155.54571533203 89 1 delete
06:48:50 57.203854 60.118302 3 314.17639165866 0.040836073458195 155.54571533203 89 1 delete
06:48:40 57.203855 60.118319 4 313.91488221643 0.34353539347649 152.13645935059 89 1 delete
06:48:29 57.203841 60.118334 3 313.24874932972 0.010757090523839 166.36326599121 89 1 delete
06:48:18 57.203847 60.118349 3 313.03827786289 0.060686890035868 166.36326599121 89 1 delete
06:48:07 57.203850 60.118342 4 312.837403815 0.015822689980268 166.36326599121 89 1 delete
06:47:56 57.203855 60.118342 4 312.72875720807 0.033743940293789 166.36326599121 89 1 delete
06:47:46 57.203854 60.118347 4 312.63238726769 0.057940669357777 166.36326599121 89 1 delete
06:47:36 57.203854 60.118364 4 312.53546228988 0.1057818159461 166.36326599121 89 1 delete
06:47:25 57.203857 60.118371 4 312.24403361408 0.044157221913338 166.36326599121 89 1 delete
06:47:15 57.203855 60.118366 4 312.14182727063 0.02208286896348 166.36326599121 89 1 delete
06:47:04 57.203854 60.118352 4 312.03177689595 0.030236518010497 166.36326599121 89 1 delete
06:46:53 57.203860 60.118333 6 311.83914540905 0.2054795473814 166.36326599121 89 1 delete
06:46:43 57.203865 60.118276 3 311.40551586603 0.029445959255099 190.59593200684 89 1 delete
06:46:31 57.203859 60.118239 3 311.21108368465 0.016888225451112 190.59593200684 89 1 delete
06:46:20 57.203861 60.118248 3 310.76644253212 0.048736892640591 190.59593200684 89 1 delete
06:46:10 57.203860 60.118247 3 310.67129135082 0.017618946731091 190.59593200684 89 1 delete
06:45:59 57.203865 60.118253 3 310.56760070573 0.011745048686862 190.59593200684 89 1 delete
06:45:49 57.203879 60.118226 3 310.19493983491 0.044628914445639 190.59593200684 89 1 delete
06:45:39 57.203875 60.118207 3 310.00174435678 0.016380930319428 190.59593200684 89 1 delete
06:45:29 57.203875 60.118191 3 309.79771917343 0.02715865150094 190.59593200684 89 1 delete
06:45:18 57.203874 60.118178 3 309.47218278446 0.053540498018265 190.59593200684 89 1 delete
06:45:07 57.203875 60.118182 6 309.34650032816 0.036793407052755 190.59593200684 89 1 delete